Station Historical Data
Daily Summary for April 14, 2017 Units:  Metric    English   Both
« Previous Day
Next Day »
Daily Weekly Monthly Yearly Custom
  High: Low: Average:
Temperature: 18.7 °C 1.9 °C 10.9 °C
Dew Point: 1.2 °C -3.1 °C -1.1 °C
Humidity: 79% 24% 48%
Wind Speed: 20.9km/h 0km/h 4.8km/h
Wind Gust: 24.1km/h - -
Wind- - ENE
Pressure: 1030.4 hPa 1025.3 hPa -
Precipitation: 0 mm    
Historical Graphs
 
 
Tabular Data for April 14, 2017
Time Temperature Dew Point Pressure Wind Wind Speed Wind Gust Humidity Rainfall Rate (Hourly)
00:04 4.7 °C -1.6 °C 1030 hPa Calm     64% 0 mm
00:09 4.9 °C -1.5 °C 1030 hPa Calm     63% 0 mm
00:14 5.1 °C -1.4 °C 1030 hPa Calm     63% 0 mm
00:19 5.3 °C -1.4 °C 1030 hPa Calm     62% 0 mm
00:24 5.6 °C -1.6 °C 1030 hPa Calm     60% 0 mm
00:29 5.6 °C -1.4 °C 1030 hPa Calm     61% 0 mm
00:34 5.6 °C -1.3 °C 1030 hPa Calm     61% 0 mm
00:39 5.7 °C -1.1 °C 1030 hPa Calm     62% 0 mm
00:44 5.7 °C -1.3 °C 1030 hPa Calm     61% 0 mm
00:49 5.8 °C -1.6 °C 1030 hPa Calm     59% 0 mm
00:54 6 °C -1.4 °C 1030 hPa Calm     59% 0 mm
00:59 6.1 °C -1.1 °C 1030 hPa Calm     60% 0 mm
01:04 6.1 °C -1.1 °C 1030 hPa Calm     60% 0 mm
01:09 5.9 °C -1 °C 1030 hPa Calm     61% 0 mm
01:14 6 °C -0.7 °C 1029.7 hPa ENE 1.6 km/h 4.8 km/h 62% 0 mm
01:19 6 °C -0.7 °C 1029.7 hPa ENE 1.6 km/h 4.8 km/h 62% 0 mm
01:24 6 °C -0.9 °C 1029.7 hPa Calm   3.2 km/h 61% 0 mm
01:29 5.9 °C -0.8 °C 1029.7 hPa Calm   3.2 km/h 62% 0 mm
01:34 5.7 °C -0.8 °C 1029.7 hPa Calm     63% 0 mm
01:39 5.7 °C -0.8 °C 1029.7 hPa Calm   1.6 km/h 63% 0 mm
01:44 5.6 °C -0.9 °C 1029.7 hPa ENE 1.6 km/h 3.2 km/h 63% 0 mm
01:49 5.3 °C -0.7 °C 1029.7 hPa Calm   1.6 km/h 65% 0 mm
01:54 5.1 °C -0.9 °C 1029.7 hPa Calm   1.6 km/h 65% 0 mm
01:59 5.1 °C -0.8 °C 1029.7 hPa Calm   1.6 km/h 66% 0 mm
02:04 4.9 °C -0.7 °C 1029.7 hPa Calm     67% 0 mm
02:09 4.8 °C -0.6 °C 1029.3 hPa ENE 4.8 km/h 4.8 km/h 68% 0 mm
02:14 4.7 °C -0.7 °C 1029.3 hPa Calm   4.8 km/h 68% 0 mm
02:19 4.8 °C -0.6 °C 1029.3 hPa Calm   1.6 km/h 68% 0 mm
02:24 4.6 °C -0.6 °C 1029.3 hPa Calm     69% 0 mm
02:29 4.7 °C -0.6 °C 1029.3 hPa Calm     69% 0 mm
02:34 4.6 °C -0.6 °C 1029.3 hPa Calm     69% 0 mm
02:39 4.4 °C -0.8 °C 1029.3 hPa Calm     69% 0 mm
02:44 4.3 °C -0.7 °C 1029.3 hPa Calm     70% 0 mm
02:49 4.2 °C -0.6 °C 1029.3 hPa Calm     71% 0 mm
02:54 4.2 °C -0.4 °C 1029.3 hPa Calm     72% 0 mm
02:59 4.2 °C -0.4 °C 1029.3 hPa Calm     72% 0 mm
03:04 4.2 °C -0.4 °C 1029.3 hPa Calm     72% 0 mm
03:09 4.2 °C -0.4 °C 1029.3 hPa Calm     72% 0 mm
03:14 4.2 °C -0.4 °C 1029.3 hPa Calm     72% 0 mm
03:19 4.2 °C -0.2 °C 1029.3 hPa Calm     73% 0 mm
03:24 4.2 °C -0.4 °C 1029.3 hPa NE 1.6 km/h 3.2 km/h 72% 0 mm
03:29 4.1 °C -0.5 °C 1029 hPa Calm   3.2 km/h 72% 0 mm
03:34 4 °C -0.6 °C 1029.3 hPa Calm   3.2 km/h 72% 0 mm
03:39 3.9 °C -0.7 °C 1029.3 hPa Calm   3.2 km/h 72% 0 mm
03:44 3.7 °C -0.7 °C 1029.3 hPa Calm     73% 0 mm
03:49 3.5 °C -0.9 °C 1029.3 hPa Calm     73% 0 mm
03:54 3.4 °C -0.9 °C 1029.3 hPa Calm     73% 0 mm
03:59 3.6 °C -0.7 °C 1029.3 hPa Calm     74% 0 mm
04:04 3.5 °C -0.9 °C 1029.3 hPa Calm     73% 0 mm
04:09 3.2 °C -0.9 °C 1029.3 hPa Calm     74% 0 mm
04:14 3.2 °C -1 °C 1029.3 hPa Calm     74% 0 mm
04:19 3 °C -1.2 °C 1029.3 hPa Calm     74% 0 mm
04:24 2.8 °C -1.2 °C 1029.3 hPa Calm     75% 0 mm
04:29 2.9 °C -1.1 °C 1029.3 hPa Calm     75% 0 mm
04:34 2.8 °C -1.2 °C 1029.3 hPa Calm     75% 0 mm
04:39 2.6 °C -1.4 °C 1029.3 hPa Calm     75% 0 mm
04:44 2.3 °C -1.4 °C 1029.3 hPa Calm     76% 0 mm
04:49 2.3 °C -1.3 °C 1029.3 hPa Calm     77% 0 mm
04:54 2.3 °C -1.3 °C 1029.3 hPa Calm     77% 0 mm
04:59 2.2 °C -1.4 °C 1029.3 hPa Calm     77% 0 mm
05:04 2.2 °C -1.4 °C 1029.3 hPa Calm     77% 0 mm
05:09 2 °C -1.6 °C 1029.3 hPa Calm     77% 0 mm
05:14 1.9 °C -1.5 °C 1029.7 hPa Calm     78% 0 mm
05:19 2.1 °C -1.4 °C 1029.3 hPa Calm     78% 0 mm
05:29 2.1 °C -1.4 °C 1029.3 hPa Calm     78% 0 mm
05:34 2.1 °C -1.2 °C 1029.3 hPa Calm     79% 0 mm
05:39 2.4 °C -1 °C 1029.3 hPa Calm     78% 0 mm
05:44 2.8 °C -0.8 °C 1029.3 hPa Calm     77% 0 mm
05:49 3.2 °C -0.7 °C 1029.3 hPa Calm     76% 0 mm
05:54 3.4 °C -0.6 °C 1029.7 hPa Calm     75% 0 mm
05:59 3.6 °C -0.6 °C 1029.7 hPa Calm     74% 0 mm
06:04 3.8 °C -0.6 °C 1029.7 hPa Calm     73% 0 mm
06:09 3.9 °C -0.7 °C 1029.7 hPa East 3.2 km/h 4.8 km/h 72% 0 mm
06:14 4.1 °C -0.6 °C 1029.7 hPa Calm   4.8 km/h 72% 0 mm
06:19 4.1 °C -0.6 °C 1029.7 hPa Calm   3.2 km/h 72% 0 mm
06:24 4.1 °C -0.7 °C 1029.7 hPa Calm   4.8 km/h 71% 0 mm
06:29 4.1 °C -0.5 °C 1029.7 hPa East 1.6 km/h 4.8 km/h 72% 0 mm
06:34 4.1 °C -0.6 °C 1029.7 hPa East 1.6 km/h 4.8 km/h 72% 0 mm
06:39 4 °C -0.6 °C 1029.7 hPa East 1.6 km/h 4.8 km/h 72% 0 mm
06:44 3.9 °C -0.4 °C 1029.7 hPa Calm   3.2 km/h 73% 0 mm
06:49 4 °C -0.4 °C 1030 hPa Calm   4.8 km/h 73% 0 mm
06:54 4.1 °C -0.3 °C 1030 hPa East 1.6 km/h 3.2 km/h 73% 0 mm
06:59 4.1 °C -0.3 °C 1030 hPa Calm   3.2 km/h 73% 0 mm
07:04 4.2 °C -0.2 °C 1030 hPa ESE 3.2 km/h 3.2 km/h 73% 0 mm
07:09 4.3 °C -0.1 °C 1030.4 hPa Calm   3.2 km/h 73% 0 mm
07:14 4.4 °C -0.2 °C 1030.4 hPa ESE 1.6 km/h 1.6 km/h 72% 0 mm
07:19 4.5 °C -0.3 °C 1030.4 hPa ENE 3.2 km/h 4.8 km/h 71% 0 mm
07:24 4.6 °C -0.2 °C 1030.4 hPa Calm   8 km/h 71% 0 mm
07:29 4.7 °C -0.2 °C 1030.4 hPa East 1.6 km/h 8 km/h 71% 0 mm
07:34 4.8 °C -0.2 °C 1030.4 hPa ESE 1.6 km/h 4.8 km/h 70% 0 mm
07:39 4.8 °C -0.2 °C 1030.4 hPa ESE 1.6 km/h 4.8 km/h 70% 0 mm
07:44 4.9 °C -0.3 °C 1030.4 hPa ESE 1.6 km/h 4.8 km/h 69% 0 mm
07:49 5 °C 0 °C 1030.4 hPa Calm   3.2 km/h 70% 0 mm
07:54 5.1 °C -0.1 °C 1030.4 hPa ESE 1.6 km/h 4.8 km/h 69% 0 mm
07:59 5.2 °C 0 °C 1030.4 hPa ESE 1.6 km/h 4.8 km/h 69% 0 mm
08:04 5.4 °C 0.2 °C 1030.4 hPa ESE 1.6 km/h 4.8 km/h 69% 0 mm
08:09 5.6 °C 0.1 °C 1030.4 hPa SE 1.6 km/h 4.8 km/h 68% 0 mm
08:14 5.7 °C 0.2 °C 1030.4 hPa SE 3.2 km/h 4.8 km/h 68% 0 mm
08:19 5.8 °C 0.2 °C 1030.4 hPa SE 4.8 km/h 6.4 km/h 67% 0 mm
08:24 6.1 °C 0.2 °C 1030.4 hPa ESE 3.2 km/h 6.4 km/h 66% 0 mm
08:29 6.3 °C 0.2 °C 1030.4 hPa ESE 1.6 km/h 6.4 km/h 65% 0 mm
08:34 6.6 °C 0.2 °C 1030.4 hPa ESE 1.6 km/h 4.8 km/h 64% 0 mm
08:39 6.9 °C 0.8 °C 1030.4 hPa ESE 1.6 km/h 4.8 km/h 65% 0 mm
08:44 7.2 °C 0.7 °C 1030.4 hPa ESE 1.6 km/h 4.8 km/h 63% 0 mm
08:49 7.4 °C 0.6 °C 1030.4 hPa ESE 1.6 km/h 4.8 km/h 62% 0 mm
08:54 8.1 °C 0.8 °C 1030.4 hPa ESE 1.6 km/h 4.8 km/h 60% 0 mm
08:59 8.7 °C 0.6 °C 1030.4 hPa Calm   8 km/h 57% 0 mm
09:04 9.5 °C 1.2 °C 1030.4 hPa NE 4.8 km/h 4.8 km/h 56% 0 mm
09:09 9.4 °C 0 °C 1030.4 hPa SE 3.2 km/h 6.4 km/h 52% 0 mm
09:14 9.5 °C 0.1 °C 1030.4 hPa ESE 3.2 km/h 9.7 km/h 52% 0 mm
09:19 10.2 °C 0.5 °C 1030.4 hPa SE 1.6 km/h 8 km/h 51% 0 mm
09:24 10.8 °C 0.6 °C 1030.4 hPa East 1.6 km/h 8 km/h 49% 0 mm
09:29 11.1 °C 0.2 °C 1030.4 hPa ESE 3.2 km/h 8 km/h 47% 0 mm
09:34 11.2 °C -0.3 °C 1030.4 hPa ESE 4.8 km/h 14.5 km/h 45% 0 mm
09:39 11.3 °C -0.8 °C 1030.4 hPa ESE 6.4 km/h 14.5 km/h 43% 0 mm
09:44 11.4 °C -0.1 °C 1030.4 hPa ENE 4.8 km/h 12.9 km/h 45% 0 mm
09:49 11.8 °C -0.1 °C 1030.4 hPa Calm   9.7 km/h 44% 0 mm
09:54 12.1 °C -1.1 °C 1030.4 hPa ENE 8 km/h 14.5 km/h 40% 0 mm
09:59 12 °C -0.9 °C 1030.4 hPa ESE 4.8 km/h 14.5 km/h 41% 0 mm
10:04 12.3 °C -1.3 °C 1030.4 hPa East 6.4 km/h 17.7 km/h 39% 0 mm
10:09 12.6 °C -1.4 °C 1030.4 hPa ENE 6.4 km/h 17.7 km/h 38% 0 mm
10:14 12.7 °C -2.1 °C 1030.4 hPa ENE 16.1 km/h 16.1 km/h 36% 0 mm
10:19 12.8 °C -2.3 °C 1030.4 hPa ESE 14.5 km/h 16.1 km/h 35% 0 mm
10:24 13.1 °C -1.7 °C 1030.4 hPa ENE 4.8 km/h 16.1 km/h 36% 0 mm
10:29 13.1 °C -2.4 °C 1030.4 hPa East 8 km/h 20.9 km/h 34% 0 mm
10:34 13.2 °C -1.6 °C 1030 hPa East 8 km/h 20.9 km/h 36% 0 mm
10:39 13.2 °C -1.9 °C 1030.4 hPa East 9.7 km/h 14.5 km/h 35% 0 mm
10:44 13.7 °C -0.7 °C 1030 hPa NE 9.7 km/h 12.9 km/h 37% 0 mm
10:49 13.9 °C -1.3 °C 1030.4 hPa NE 12.9 km/h 14.5 km/h 35% 0 mm
10:54 13.7 °C -1.2 °C 1030.4 hPa NE 9.7 km/h 14.5 km/h 36% 0 mm
10:59 13.8 °C -1.4 °C 1030 hPa ENE 8 km/h 14.5 km/h 35% 0 mm
11:04 13.9 °C -0.6 °C 1030 hPa ENE 6.4 km/h 14.5 km/h 37% 0 mm
11:09 14.2 °C -0.7 °C 1030 hPa ENE 6.4 km/h 14.5 km/h 36% 0 mm
11:14 14.5 °C -0.8 °C 1030 hPa ENE 6.4 km/h 14.5 km/h 35% 0 mm
11:19 14.3 °C -1.4 °C 1030 hPa ENE 6.4 km/h 14.5 km/h 34% 0 mm
11:24 14.6 °C -0.3 °C 1030 hPa NE 8 km/h 17.7 km/h 36% 0 mm
11:29 14.6 °C -0.7 °C 1030 hPa Calm   14.5 km/h 35% 0 mm
11:34 14.6 °C -1.6 °C 1030 hPa East 8 km/h 14.5 km/h 33% 0 mm
11:39 14.7 °C -1.1 °C 1030 hPa NE 8 km/h 14.5 km/h 34% 0 mm
11:44 14.8 °C -0.9 °C 1029.7 hPa SE 11.3 km/h 14.5 km/h 34% 0 mm
11:49 15.3 °C -0.1 °C 1029.7 hPa ESE 4.8 km/h 12.9 km/h 35% 0 mm
11:54 15.7 °C -1 °C 1029.7 hPa ENE 6.4 km/h 16.1 km/h 32% 0 mm
11:59 15.7 °C -0.9 °C 1029.7 hPa East 6.4 km/h 16.1 km/h 32% 0 mm
12:04 15.7 °C -1.8 °C 1029.7 hPa ENE 8 km/h 19.3 km/h 30% 0 mm
12:09 16 °C -1.2 °C 1029.7 hPa ENE 6.4 km/h 19.3 km/h 31% 0 mm
12:14 15.9 °C -2.2 °C 1029.3 hPa East 6.4 km/h 14.5 km/h 29% 0 mm
12:19 15.8 °C -2.7 °C 1029.3 hPa NE 12.9 km/h 16.1 km/h 28% 0 mm
12:24 15.8 °C -1.7 °C 1029.3 hPa NE 16.1 km/h 16.1 km/h 30% 0 mm
12:29 16.1 °C -2.9 °C 1029.3 hPa NE 6.4 km/h 16.1 km/h 27% 0 mm
12:34 16.3 °C -2.3 °C 1029.3 hPa ENE 8 km/h 16.1 km/h 28% 0 mm
12:39 16.3 °C -1.8 °C 1029.3 hPa ENE 6.4 km/h 16.1 km/h 29% 0 mm
12:44 16.3 °C -2.7 °C 1029 hPa NNE 8 km/h 16.1 km/h 27% 0 mm
12:49 16.6 °C -1.6 °C 1029 hPa ENE 12.9 km/h 17.7 km/h 29% 0 mm
12:54 16.6 °C -2.6 °C 1029 hPa NE 9.7 km/h 19.3 km/h 27% 0 mm
12:59 16.5 °C -3.1 °C 1029 hPa NNE 6.4 km/h 19.3 km/h 26% 0 mm
13:04 16.6 °C -2.5 °C 1029 hPa NE 8 km/h 14.5 km/h 27% 0 mm
13:09 16.7 °C -1.9 °C 1029 hPa East 14.5 km/h 20.9 km/h 28% 0 mm
13:14 16.8 °C -2.3 °C 1028.7 hPa East 3.2 km/h 16.1 km/h 27% 0 mm
13:19 17 °C -0.7 °C 1028.7 hPa NE 6.4 km/h 14.5 km/h 30% 0 mm
13:24 17.1 °C -2.6 °C 1028.7 hPa East 6.4 km/h 14.5 km/h 26% 0 mm
13:29 17.2 °C -1.4 °C 1028.7 hPa ENE 6.4 km/h 17.7 km/h 28% 0 mm
13:34 17.3 °C -2.4 °C 1028.7 hPa NE 8 km/h 17.7 km/h 26% 0 mm
13:39 17.2 °C -0.1 °C 1028.7 hPa ENE 8 km/h 17.7 km/h 31% 0 mm
13:44 17.3 °C -2.4 °C 1028.7 hPa ESE 12.9 km/h 17.7 km/h 26% 0 mm
13:49 17.4 °C 0.1 °C 1028.7 hPa ENE 8 km/h 17.7 km/h 31% 0 mm
13:54 17.4 °C -0.8 °C 1028.7 hPa NE 12.9 km/h 16.1 km/h 29% 0 mm
13:59 17.2 °C -3.1 °C 1028.7 hPa East 11.3 km/h 22.5 km/h 25% 0 mm
14:04 16.8 °C -2.8 °C 1028.3 hPa NE 11.3 km/h 19.3 km/h 26% 0 mm
14:09 16.9 °C -2.3 °C 1028.3 hPa North 6.4 km/h 16.1 km/h 27% 0 mm
14:14 17.1 °C -2.1 °C 1028.3 hPa ENE 4.8 km/h 19.3 km/h 27% 0 mm
14:19 17.1 °C -2.1 °C 1028.3 hPa South 4.8 km/h 22.5 km/h 27% 0 mm
14:24 17.1 °C -2.1 °C 1028 hPa East 6.4 km/h 22.5 km/h 27% 0 mm
14:29 17.3 °C -2.4 °C 1028 hPa ENE 8 km/h 20.9 km/h 26% 0 mm
14:34 17.3 °C -2.4 °C 1028 hPa NE 8 km/h 20.9 km/h 26% 0 mm
14:39 17.2 °C -3.1 °C 1028 hPa NE 8 km/h 24.1 km/h 25% 0 mm
14:44 16.9 °C -2.2 °C 1028 hPa NE 8 km/h 24.1 km/h 27% 0 mm
14:49 17.3 °C -1.9 °C 1028 hPa East 8 km/h 14.5 km/h 27% 0 mm
14:54 17.3 °C -0.9 °C 1027.7 hPa ENE 1.6 km/h 17.7 km/h 29% 0 mm
14:59 17.2 °C -1.4 °C 1027.7 hPa NE 6.4 km/h 17.7 km/h 28% 0 mm
15:04 17.7 °C -0.1 °C 1027.7 hPa NE 8 km/h 16.1 km/h 30% 0 mm
15:09 17.4 °C -2.8 °C 1027.7 hPa ENE 3.2 km/h 14.5 km/h 25% 0 mm
15:14 17.7 °C -2.1 °C 1027.3 hPa SSE 4.8 km/h 16.1 km/h 26% 0 mm
15:19 17.8 °C -1.5 °C 1027.3 hPa NE 4.8 km/h 14.5 km/h 27% 0 mm
15:24 17.8 °C -3.1 °C 1027.3 hPa Calm   9.7 km/h 24% 0 mm
15:29 17.7 °C -2.1 °C 1027 hPa ENE 4.8 km/h 14.5 km/h 26% 0 mm
15:34 17.8 °C -1.4 °C 1027 hPa ENE 6.4 km/h 17.7 km/h 27% 0 mm
15:39 17.8 °C -3.1 °C 1027 hPa ENE 8 km/h 17.7 km/h 24% 0 mm
15:44 17.7 °C -1.6 °C 1027 hPa NE 6.4 km/h 17.7 km/h 27% 0 mm
15:49 17.7 °C -2.1 °C 1027 hPa NE 8 km/h 20.9 km/h 26% 0 mm
15:54 17.8 °C -2 °C 1027 hPa NE 9.7 km/h 14.5 km/h 26% 0 mm
15:59 17.8 °C -2 °C 1026.6 hPa NE 8 km/h 19.3 km/h 26% 0 mm
16:04 17.6 °C -1.6 °C 1026.6 hPa NE 8 km/h 19.3 km/h 27% 0 mm
16:09 17.9 °C -0.4 °C 1026.6 hPa NE 9.7 km/h 16.1 km/h 29% 0 mm
16:14 18.2 °C -0.7 °C 1026.6 hPa East 4.8 km/h 12.9 km/h 28% 0 mm
16:19 18.4 °C -1.4 °C 1026.6 hPa ENE 3.2 km/h 14.5 km/h 26% 0 mm
16:24 18.6 °C -1.3 °C 1026.6 hPa East 1.6 km/h 12.9 km/h 26% 0 mm
16:29 18.6 °C -1.3 °C 1026.3 hPa East 4.8 km/h 16.1 km/h 26% 0 mm
16:34 18.6 °C -1.3 °C 1026.3 hPa East 4.8 km/h 16.1 km/h 26% 0 mm
16:39 18.7 °C -1.8 °C 1026.3 hPa North 6.4 km/h 12.9 km/h 25% 0 mm
16:44 18.7 °C -0.7 °C 1026.3 hPa East 8 km/h 12.9 km/h 27% 0 mm
16:49 18.6 °C -0.8 °C 1026.3 hPa ESE 8 km/h 11.3 km/h 27% 0 mm
16:54 18.6 °C -0.3 °C 1026.3 hPa ENE 6.4 km/h 12.9 km/h 28% 0 mm
16:59 18.6 °C -1.3 °C 1026.3 hPa ENE 6.4 km/h 16.1 km/h 26% 0 mm
17:04 18.4 °C -1.4 °C 1026.3 hPa ENE 8 km/h 16.1 km/h 26% 0 mm
17:09 18.4 °C -1.9 °C 1026.3 hPa ENE 6.4 km/h 14.5 km/h 25% 0 mm
17:14 18.4 °C -1.5 °C 1026.3 hPa ENE 6.4 km/h 12.9 km/h 26% 0 mm
17:19 18.4 °C -1.4 °C 1026.3 hPa East 8 km/h 16.1 km/h 26% 0 mm
17:24 18.3 °C -1.6 °C 1026.3 hPa ENE 4.8 km/h 16.1 km/h 26% 0 mm
17:29 18.3 °C -2.1 °C 1026.3 hPa NE 14.5 km/h 16.1 km/h 25% 0 mm
17:34 18.2 °C -1.6 °C 1026.3 hPa ENE 6.4 km/h 16.1 km/h 26% 0 mm
17:39 18.2 °C -1.7 °C 1026.3 hPa ENE 4.8 km/h 16.1 km/h 26% 0 mm
17:44 18.2 °C -2.2 °C 1026.3 hPa East 9.7 km/h 14.5 km/h 25% 0 mm
17:49 18.1 °C -1.8 °C 1026 hPa ENE 12.9 km/h 22.5 km/h 26% 0 mm
17:54 18 °C -1.3 °C 1026 hPa ENE 8 km/h 22.5 km/h 27% 0 mm
17:59 17.9 °C -1.8 °C 1026 hPa ENE 8 km/h 16.1 km/h 26% 0 mm
18:04 17.9 °C -1.4 °C 1026 hPa NE 6.4 km/h 16.1 km/h 27% 0 mm
18:09 17.7 °C -2.6 °C 1026 hPa NE 3.2 km/h 19.3 km/h 25% 0 mm
18:14 17.6 °C -1.6 °C 1026 hPa NE 6.4 km/h 16.1 km/h 27% 0 mm
18:19 17.5 °C -1.2 °C 1026 hPa ENE 3.2 km/h 12.9 km/h 28% 0 mm
18:24 17.4 °C -1.8 °C 1026 hPa ENE 6.4 km/h 16.1 km/h 27% 0 mm
18:29 17.3 °C -2.4 °C 1026 hPa ENE 8 km/h 16.1 km/h 26% 0 mm
18:34 17.2 °C -1.9 °C 1026 hPa NE 9.7 km/h 17.7 km/h 27% 0 mm
18:39 17 °C 0.2 °C 1026 hPa NE 8 km/h 17.7 km/h 32% 0 mm
18:44 16.8 °C 0.4 °C 1026 hPa NE 11.3 km/h 12.9 km/h 33% 0 mm
18:49 16.4 °C 0.1 °C 1026 hPa NE 14.5 km/h 16.1 km/h 33% 0 mm
18:54 16.2 °C 0.3 °C 1026 hPa NE 8 km/h 16.1 km/h 34% 0 mm
18:59 15.9 °C 0.4 °C 1026 hPa NNE 9.7 km/h 19.3 km/h 35% 0 mm
19:04 15.7 °C 0.2 °C 1026 hPa NNE 9.7 km/h 14.5 km/h 35% 0 mm
19:09 15.4 °C 0.4 °C 1026 hPa NE 8 km/h 14.5 km/h 36% 0 mm
19:14 15.2 °C 0.6 °C 1026 hPa NE 20.9 km/h 20.9 km/h 37% 0 mm
19:19 15.1 °C 0.5 °C 1026 hPa NNE 8 km/h 19.3 km/h 37% 0 mm
19:24 14.9 °C 0.7 °C 1026 hPa NE 9.7 km/h 20.9 km/h 38% 0 mm
19:29 14.8 °C 0.6 °C 1026 hPa NE 9.7 km/h 20.9 km/h 38% 0 mm
19:34 14.6 °C 0.8 °C 1026 hPa NE 9.7 km/h 17.7 km/h 39% 0 mm
19:39 14.5 °C 0.3 °C 1026 hPa NE 8 km/h 19.3 km/h 38% 0 mm
19:44 14.3 °C 0.6 °C 1026 hPa NE 8 km/h 19.3 km/h 39% 0 mm
19:49 14.2 °C 0.4 °C 1026 hPa NNE 9.7 km/h 19.3 km/h 39% 0 mm
19:54 14.1 °C 0.3 °C 1026 hPa NE 11.3 km/h 20.9 km/h 39% 0 mm
19:59 14 °C 0.2 °C 1026 hPa ENE 8 km/h 22.5 km/h 39% 0 mm
20:04 13.8 °C 0.1 °C 1025.6 hPa ENE 14.5 km/h 17.7 km/h 39% 0 mm
20:09 13.7 °C 0 °C 1026 hPa NE 12.9 km/h 16.1 km/h 39% 0 mm
20:14 13.6 °C 0.2 °C 1026 hPa NE 8 km/h 19.3 km/h 40% 0 mm
20:19 13.4 °C 0.1 °C 1026 hPa ENE 12.9 km/h 16.1 km/h 40% 0 mm
20:24 13.3 °C -0.1 °C 1026 hPa NE 9.7 km/h 16.1 km/h 40% 0 mm
20:29 13.2 °C 0.2 °C 1026 hPa NE 9.7 km/h 16.1 km/h 41% 0 mm
20:34 12.9 °C 0 °C 1026 hPa NE 9.7 km/h 16.1 km/h 41% 0 mm
20:39 12.8 °C -0.1 °C 1026 hPa NE 9.7 km/h 16.1 km/h 41% 0 mm
20:44 12.7 °C 0.1 °C 1026 hPa NE 8 km/h 16.1 km/h 42% 0 mm
20:49 12.6 °C -0.3 °C 1026 hPa NE 9.7 km/h 19.3 km/h 41% 0 mm
20:54 12.4 °C -0.1 °C 1026 hPa NE 8 km/h 19.3 km/h 42% 0 mm
20:59 12.3 °C -0.2 °C 1026 hPa NE 3.2 km/h 14.5 km/h 42% 0 mm
21:04 12.2 °C 0 °C 1026 hPa NE 6.4 km/h 14.5 km/h 43% 0 mm
21:09 12.1 °C -0.4 °C 1026 hPa NE 4.8 km/h 12.9 km/h 42% 0 mm
21:14 11.9 °C -0.6 °C 1026 hPa NE 8 km/h 12.9 km/h 42% 0 mm
21:19 11.9 °C -0.9 °C 1026 hPa NE 9.7 km/h 14.5 km/h 41% 0 mm
21:24 11.7 °C -1.1 °C 1026 hPa ENE 6.4 km/h 14.5 km/h 41% 0 mm
21:29 11.7 °C -1.2 °C 1026 hPa ENE 6.4 km/h 14.5 km/h 41% 0 mm
21:34 11.6 °C -1.3 °C 1026 hPa ENE 6.4 km/h 14.5 km/h 41% 0 mm
21:39 11.4 °C -1.4 °C 1026 hPa ENE 6.4 km/h 14.5 km/h 41% 0 mm
21:44 11.3 °C -1.4 °C 1026 hPa ENE 6.4 km/h 14.5 km/h 41% 0 mm
21:49 11.2 °C -1.2 °C 1026 hPa East 3.2 km/h 11.3 km/h 42% 0 mm
21:54 11.1 °C -1.4 °C 1026 hPa NE 4.8 km/h 14.5 km/h 42% 0 mm
21:59 10.9 °C -1.9 °C 1026 hPa ENE 3.2 km/h 12.9 km/h 41% 0 mm
22:04 10.8 °C -1.6 °C 1026 hPa NE 4.8 km/h 12.9 km/h 42% 0 mm
22:09 10.7 °C -1.7 °C 1026 hPa NE 4.8 km/h 12.9 km/h 42% 0 mm
22:14 10.6 °C -2.1 °C 1026 hPa East 8 km/h 12.9 km/h 41% 0 mm
22:19 10.5 °C -1.9 °C 1026 hPa ENE 11.3 km/h 14.5 km/h 42% 0 mm
22:24 10.4 °C -2.3 °C 1026 hPa ENE 6.4 km/h 14.5 km/h 41% 0 mm
22:29 10.4 °C -2 °C 1026 hPa ENE 6.4 km/h 14.5 km/h 42% 0 mm
22:34 10.3 °C -2.1 °C 1026 hPa ENE 4.8 km/h 14.5 km/h 42% 0 mm
22:39 10.2 °C -2.2 °C 1026 hPa ENE 4.8 km/h 12.9 km/h 42% 0 mm
22:44 10.1 °C -2.3 °C 1026 hPa ENE 8 km/h 14.5 km/h 42% 0 mm
22:49 10 °C -2.3 °C 1026 hPa ENE 4.8 km/h 14.5 km/h 42% 0 mm
22:54 9.9 °C -2.1 °C 1026 hPa ENE 6.4 km/h 14.5 km/h 43% 0 mm
22:59 9.8 °C -2.2 °C 1025.6 hPa ENE 4.8 km/h 14.5 km/h 43% 0 mm
23:04 9.8 °C -1.9 °C 1025.6 hPa ENE 4.8 km/h 12.9 km/h 44% 0 mm
23:09 9.7 °C -2 °C 1025.6 hPa ENE 4.8 km/h 9.7 km/h 44% 0 mm
23:14 9.6 °C -2.1 °C 1025.6 hPa NE 3.2 km/h 12.9 km/h 44% 0 mm
23:19 9.5 °C -1.8 °C 1025.6 hPa ENE 4.8 km/h 12.9 km/h 45% 0 mm
23:24 9.5 °C -1.8 °C 1025.6 hPa ENE 4.8 km/h 11.3 km/h 45% 0 mm
23:29 9.4 °C -1.9 °C 1025.3 hPa NE 3.2 km/h 6.4 km/h 45% 0 mm
23:34 9.3 °C -2 °C 1025.3 hPa East 8 km/h 9.7 km/h 45% 0 mm
23:39 9.3 °C -2.1 °C 1025.3 hPa East 8 km/h 8 km/h 45% 0 mm
23:44 9.2 °C -1.9 °C 1025.3 hPa ENE 3.2 km/h 11.3 km/h 46% 0 mm
23:49 9.2 °C -1.9 °C 1025.3 hPa ENE 4.8 km/h 11.3 km/h 46% 0 mm
23:54 9.1 °C -1.9 °C 1025.3 hPa ENE 4.8 km/h 11.3 km/h 46% 0 mm
23:59 9 °C -1.7 °C 1025.3 hPa ENE 3.2 km/h 11.3 km/h 47% 0 mm
Buffalo, New York, USA
Compliments of Weather Underground - 2.5 mb